createdAt,value
2022-08-22T08:36:23.769Z,26.74
2022-08-22T08:37:24.621Z,26.83
2022-08-22T08:38:25.500Z,26.92
2022-08-22T08:39:35.057Z,27.05
2022-08-22T08:40:28.141Z,27.16
2022-08-22T08:41:28.044Z,27.28
2022-08-22T08:42:28.910Z,27.35
2022-08-22T08:43:29.839Z,27.47
2022-08-22T08:44:30.682Z,27.58
2022-08-22T08:45:31.608Z,27.67
2022-08-22T08:46:32.477Z,27.75
2022-08-22T08:47:33.409Z,27.83
2022-08-22T08:48:34.277Z,27.91
2022-08-22T08:49:35.164Z,27.95
2022-08-22T08:50:36.940Z,28.04
2022-08-22T08:51:36.835Z,28.09
2022-08-22T08:52:37.558Z,28.18
2022-08-22T08:53:38.429Z,28.27
2022-08-22T08:54:40.198Z,28.31
2022-08-22T08:55:40.050Z,28.35
2022-08-22T08:56:44.965Z,28.31
2022-08-22T08:57:42.689Z,28.22
2022-08-22T08:58:42.384Z,28.08
2022-08-22T08:59:44.172Z,28.01
2022-08-22T09:00:44.098Z,28.08
2022-08-22T09:01:45.101Z,28.10
2022-08-22T09:02:45.933Z,28.15
2022-08-22T09:03:46.567Z,28.20
2022-08-22T09:04:47.453Z,28.30
2022-08-22T09:05:48.355Z,28.31
2022-08-22T09:06:50.655Z,28.40
2022-08-22T09:07:51.009Z,28.41
2022-08-22T09:08:55.548Z,28.33
2022-08-22T09:09:52.254Z,28.35
2022-08-22T09:10:52.531Z,28.34
2022-08-22T09:11:52.990Z,28.40
2022-08-22T09:12:56.474Z,28.41
2022-08-22T09:13:55.676Z,28.43
2022-08-22T09:14:55.567Z,28.45
2022-08-22T09:16:02.319Z,28.38
2022-08-22T09:16:58.217Z,28.27
2022-08-22T09:17:58.337Z,28.28
2022-08-22T09:18:58.693Z,28.30
2022-08-22T09:19:59.581Z,28.34
2022-08-22T09:21:00.604Z,28.37
2022-08-22T09:22:01.435Z,28.45
2022-08-22T09:23:02.332Z,28.46
2022-08-22T09:24:03.106Z,28.49
2022-08-22T09:25:06.348Z,28.53
2022-08-22T09:26:05.002Z,28.56
2022-08-22T09:27:08.756Z,28.57
2022-08-22T09:28:06.242Z,28.62
2022-08-22T09:29:07.139Z,28.68
2022-08-22T09:30:07.995Z,28.70
2022-08-22T09:31:16.589Z,28.71
2022-08-22T09:32:13.231Z,28.74
2022-08-22T09:33:10.679Z,28.75
2022-08-22T09:34:11.500Z,28.71
2022-08-22T09:35:12.295Z,28.74
2022-08-22T09:36:13.218Z,28.74
2022-08-22T09:38:15.543Z,28.74
2022-08-22T09:39:15.431Z,28.75
2022-08-22T09:41:17.717Z,28.75
2022-08-22T09:42:17.442Z,28.74
2022-08-22T09:43:21.209Z,28.75
2022-08-22T09:44:19.195Z,28.75
2022-08-22T09:45:20.001Z,28.75
2022-08-22T09:46:20.891Z,28.74
2022-08-22T09:47:24.583Z,28.71
2022-08-22T09:48:22.707Z,28.71
2022-08-22T09:49:23.303Z,28.72
2022-08-22T09:50:23.867Z,28.75
2022-08-22T09:51:31.948Z,28.75
2022-08-22T09:52:33.872Z,28.80
2022-08-22T09:53:27.151Z,28.82
2022-08-22T09:54:31.475Z,28.80
2022-08-22T09:55:35.421Z,28.82
2022-08-22T09:56:29.704Z,28.77
2022-08-22T09:57:29.654Z,28.78
2022-08-22T09:58:30.509Z,28.80
2022-08-22T09:59:31.391Z,28.82
2022-08-22T10:00:32.042Z,28.83
2022-08-22T10:01:33.311Z,28.82
2022-08-22T10:02:33.765Z,28.82
2022-08-22T10:03:34.657Z,28.80
2022-08-22T10:04:35.645Z,28.82
2022-08-22T10:05:44.029Z,28.83
2022-08-22T10:06:38.239Z,28.80
2022-08-22T10:07:38.130Z,28.83
2022-08-22T10:08:38.970Z,28.80
2022-08-22T10:09:39.915Z,28.83
2022-08-22T10:10:40.799Z,28.80
2022-08-22T10:11:43.274Z,28.77
2022-08-22T10:12:42.644Z,28.80
2022-08-22T10:13:43.163Z,28.77
2022-08-22T10:14:45.444Z,28.75
2022-08-22T10:15:45.874Z,28.74
2022-08-22T10:16:45.399Z,28.72
2022-08-22T10:17:46.309Z,28.71
2022-08-22T10:18:53.768Z,28.71
2022-08-22T10:19:49.030Z,28.71
2022-08-22T10:20:48.892Z,28.71
2022-08-22T10:21:49.790Z,28.72
2022-08-22T10:22:51.443Z,28.74
2022-08-22T10:23:51.383Z,28.72
2022-08-22T10:24:52.256Z,28.77
2022-08-22T10:25:53.137Z,28.74
2022-08-22T10:26:54.069Z,28.77
2022-08-22T10:27:54.766Z,28.82
2022-08-22T10:28:55.647Z,28.82
2022-08-22T10:29:56.823Z,28.77
2022-08-22T10:30:57.133Z,28.83
2022-08-22T10:31:58.998Z,28.80
2022-08-22T10:32:59.386Z,28.80
2022-08-22T10:33:59.326Z,28.80
2022-08-22T10:35:00.263Z,28.72
2022-08-22T10:36:04.908Z,28.68
2022-08-22T10:37:01.756Z,28.64
2022-08-22T10:38:03.671Z,28.65
2022-08-22T10:39:09.427Z,28.64
2022-08-22T10:40:05.343Z,28.65
2022-08-22T10:41:08.798Z,28.67
2022-08-22T10:42:07.479Z,28.67
2022-08-22T10:43:06.129Z,28.67
2022-08-22T10:44:06.634Z,28.68
2022-08-22T10:45:07.592Z,28.67
2022-08-22T10:46:12.343Z,28.57
2022-08-22T10:47:09.085Z,28.56
2022-08-22T10:48:10.177Z,28.55
2022-08-22T10:49:10.736Z,28.55
2022-08-22T10:50:11.707Z,28.56
2022-08-22T10:51:12.362Z,28.57
2022-08-22T10:52:15.876Z,28.57
2022-08-22T10:53:14.042Z,28.56
2022-08-22T10:54:14.837Z,28.59
2022-08-22T10:55:16.609Z,28.59
2022-08-22T10:56:16.086Z,28.60
2022-08-22T10:57:20.794Z,28.62
2022-08-22T10:58:17.777Z,28.60
2022-08-22T10:59:18.599Z,28.64
2022-08-22T11:00:22.576Z,28.62
2022-08-22T11:01:37.553Z,28.64
2022-08-22T11:02:22.109Z,28.67
2022-08-22T11:03:23.498Z,28.64
2022-08-22T11:04:28.268Z,28.59
2022-08-22T11:05:24.508Z,28.59
2022-08-22T11:06:24.457Z,28.57
2022-08-22T11:07:24.959Z,28.57
2022-08-22T11:08:25.868Z,28.60
2022-08-22T11:09:26.546Z,28.56
2022-08-22T11:10:27.079Z,28.57
2022-08-22T11:11:32.943Z,28.57
2022-08-22T11:12:35.085Z,28.59
2022-08-22T11:13:30.457Z,28.60
2022-08-22T11:14:30.372Z,28.62
2022-08-22T11:15:34.953Z,28.64
2022-08-22T11:16:32.234Z,28.64
2022-08-22T11:17:35.513Z,28.57
2022-08-22T11:18:34.493Z,28.56
2022-08-22T11:19:34.382Z,28.56
2022-08-22T11:20:35.252Z,28.56
2022-08-22T11:21:36.133Z,28.60
2022-08-22T11:22:37.006Z,28.62
2022-08-22T11:23:37.929Z,28.65
2022-08-22T11:24:53.923Z,28.64
2022-08-22T11:25:40.492Z,28.67
2022-08-22T11:26:47.093Z,28.65
2022-08-22T11:27:42.167Z,28.62
2022-08-22T11:28:42.030Z,28.59
2022-08-22T11:29:43.546Z,28.56
2022-08-22T11:30:44.392Z,28.59
2022-08-22T11:31:47.368Z,28.57
2022-08-22T11:32:45.892Z,28.57
2022-08-22T11:33:46.925Z,28.60
2022-08-22T11:34:46.542Z,28.67
2022-08-22T11:35:47.477Z,28.64
2022-08-22T11:36:48.322Z,28.50
2022-08-22T11:37:49.135Z,28.45
2022-08-22T11:38:50.918Z,28.40
2022-08-22T11:39:50.850Z,28.38
2022-08-22T11:40:51.737Z,28.34
2022-08-22T11:41:53.242Z,28.35
2022-08-22T11:42:53.149Z,28.37
2022-08-22T11:43:53.992Z,28.40
2022-08-22T11:44:54.663Z,28.45
2022-08-22T11:45:55.566Z,28.46
2022-08-22T11:46:56.429Z,28.46
2022-08-22T11:47:57.284Z,28.50
2022-08-22T11:48:58.156Z,28.55
2022-08-22T11:49:58.806Z,28.56
2022-08-22T11:50:59.680Z,28.60
2022-08-22T11:52:00.562Z,28.65
2022-08-22T11:53:01.567Z,28.68
2022-08-22T11:54:02.004Z,28.70
2022-08-22T11:55:02.906Z,28.72
2022-08-22T11:56:05.497Z,28.78
2022-08-22T11:57:04.517Z,28.82
2022-08-22T11:58:05.404Z,28.89
2022-08-22T11:59:06.277Z,28.92
2022-08-22T12:00:06.922Z,28.97
2022-08-22T12:01:11.729Z,29.03
2022-08-22T12:02:09.573Z,29.10
2022-08-22T12:03:09.330Z,29.13
2022-08-22T12:04:10.233Z,29.10
2022-08-22T12:05:10.754Z,29.15
2022-08-22T12:06:12.503Z,29.21
2022-08-22T12:07:12.365Z,29.22
2022-08-22T12:08:13.252Z,29.25
2022-08-22T12:09:14.133Z,29.22
2022-08-22T12:10:15.029Z,29.25
2022-08-22T12:11:15.361Z,29.22
2022-08-22T12:12:17.052Z,29.27
2022-08-22T12:13:17.024Z,29.28
2022-08-22T12:14:17.859Z,29.30
2022-08-22T12:15:18.523Z,29.31
2022-08-22T12:16:19.433Z,29.34
2022-08-22T12:17:26.284Z,29.37
2022-08-22T12:18:22.118Z,29.39
2022-08-22T12:19:22.958Z,29.42
2022-08-22T12:20:22.882Z,29.46
2022-08-22T12:21:23.822Z,29.52
2022-08-22T12:22:24.479Z,29.55
2022-08-22T12:23:43.375Z,29.57
2022-08-22T12:24:26.969Z,29.62
2022-08-22T12:25:26.586Z,29.62
2022-08-22T12:26:27.402Z,29.65
2022-08-22T12:27:28.704Z,29.68
2022-08-22T12:28:28.937Z,29.69
2022-08-22T12:31:20.165Z,29.73
2022-08-22T12:32:27.583Z,29.73
2022-08-22T12:33:23.486Z,29.69
2022-08-22T12:34:22.356Z,29.68
2022-08-22T12:35:29.961Z,29.69
2022-08-22T12:36:24.663Z,29.64
2022-08-22T12:37:24.530Z,29.65
2022-08-22T12:38:28.503Z,29.65
2022-08-22T12:39:26.283Z,29.65
2022-08-22T12:40:27.339Z,29.62
2022-08-22T12:41:34.810Z,29.58
2022-08-22T12:42:29.413Z,29.52
2022-08-22T12:43:29.460Z,29.49
2022-08-22T12:44:30.140Z,29.44
2022-08-22T12:45:30.751Z,29.46
2022-08-22T12:46:32.473Z,29.46
2022-08-22T12:47:34.444Z,29.50
2022-08-22T12:48:33.328Z,29.50
2022-08-22T12:49:34.234Z,29.53
2022-08-22T12:50:35.193Z,29.57
2022-08-22T12:51:36.055Z,29.61
2022-08-22T12:52:36.924Z,29.64
2022-08-22T12:53:37.936Z,29.69
2022-08-22T12:54:38.665Z,29.74
2022-08-22T12:55:39.230Z,29.77
2022-08-22T12:56:40.129Z,29.90
2022-08-22T12:57:40.974Z,29.94
2022-08-22T12:58:41.851Z,30.06
2022-08-22T12:59:42.727Z,30.16
2022-08-22T13:00:43.658Z,30.24
2022-08-22T13:01:44.594Z,30.32
2022-08-22T13:02:45.482Z,30.46
2022-08-22T13:03:46.388Z,30.58
2022-08-22T13:04:47.208Z,30.78
2022-08-22T13:05:56.760Z,31.04
2022-08-22T13:06:49.992Z,31.28
2022-08-22T13:07:49.395Z,31.54
2022-08-22T13:08:50.074Z,31.81
2022-08-22T13:09:52.415Z,32.04
2022-08-22T13:10:51.390Z,31.98
2022-08-22T13:11:51.886Z,31.77
2022-08-22T13:12:53.776Z,31.93
2022-08-22T13:13:56.496Z,32.23
2022-08-22T13:14:54.314Z,32.34
2022-08-22T13:15:55.331Z,32.49
2022-08-22T13:16:56.033Z,32.85
2022-08-22T13:18:08.694Z,32.91
2022-08-22T13:18:58.111Z,33.22
2022-08-22T13:19:58.121Z,33.15
2022-08-22T13:20:58.623Z,32.64
2022-08-22T13:21:59.076Z,32.35
2022-08-22T13:22:59.961Z,32.15
2022-08-22T13:24:00.606Z,31.95
2022-08-22T13:25:01.511Z,31.77
2022-08-22T13:26:02.286Z,31.63
2022-08-22T13:27:03.156Z,31.52
2022-08-22T13:28:04.516Z,31.44
2022-08-22T13:29:24.560Z,31.32
2022-08-22T13:30:06.952Z,31.28
2022-08-22T13:31:07.512Z,31.23
2022-08-22T13:32:07.398Z,31.14
2022-08-22T13:33:08.534Z,31.05
2022-08-22T13:34:09.184Z,30.99
2022-08-22T13:35:10.156Z,30.93
2022-08-22T13:36:10.885Z,30.88
2022-08-22T13:37:11.386Z,30.81
2022-08-22T13:38:12.536Z,30.77
2022-08-22T13:39:12.896Z,30.70
2022-08-22T13:40:13.928Z,30.69
2022-08-22T13:41:14.825Z,30.61
2022-08-22T13:42:27.804Z,30.58
2022-08-22T13:43:17.482Z,30.51
2022-08-22T13:44:17.374Z,30.44
2022-08-22T13:45:18.241Z,30.36
2022-08-22T13:46:18.800Z,30.38
2022-08-22T13:47:19.651Z,30.36
2022-08-22T13:48:20.182Z,30.35
2022-08-22T13:49:21.060Z,30.33
2022-08-22T13:50:21.789Z,30.31
2022-08-22T13:51:22.635Z,30.27
2022-08-22T13:52:30.021Z,30.26
2022-08-22T13:53:24.990Z,30.26
2022-08-22T13:54:24.696Z,30.21
2022-08-22T13:55:27.691Z,30.21
2022-08-22T13:56:26.491Z,30.23
2022-08-22T13:57:27.407Z,30.23
2022-08-22T13:58:28.160Z,30.23
2022-08-22T13:59:49.761Z,30.21
2022-08-22T14:00:30.802Z,30.21
2022-08-22T14:01:30.766Z,30.20
2022-08-22T14:02:32.382Z,30.17
2022-08-22T14:03:32.182Z,30.16
2022-08-22T14:04:36.471Z,30.06
2022-08-22T14:05:33.953Z,30.02
2022-08-22T14:06:38.409Z,29.96
2022-08-22T14:07:36.582Z,29.84
2022-08-22T14:08:36.469Z,29.81
2022-08-22T14:09:37.432Z,29.83
2022-08-22T14:10:38.286Z,29.87
2022-08-22T14:11:39.909Z,29.90
2022-08-22T14:12:50.795Z,29.87
2022-08-22T14:13:41.557Z,29.80
2022-08-22T14:14:41.472Z,29.74
2022-08-22T14:15:45.637Z,29.69
2022-08-22T14:16:43.851Z,29.68
2022-08-22T14:17:43.691Z,29.65
2022-08-22T14:18:46.202Z,29.62
2022-08-22T14:19:58.871Z,29.62
2022-08-22T14:20:47.719Z,29.59
2022-08-22T14:21:49.113Z,29.55
2022-08-22T14:22:47.716Z,29.55
2022-08-22T14:23:48.586Z,29.59
2022-08-22T14:24:55.695Z,29.67
2022-08-22T14:25:50.920Z,29.68
2022-08-22T14:26:50.764Z,29.74
2022-08-22T14:27:51.686Z,29.69
2022-08-22T14:28:52.560Z,29.71
2022-08-22T14:29:53.512Z,29.76
2022-08-22T14:30:59.374Z,29.87
2022-08-22T14:31:56.138Z,30.01
2022-08-22T14:32:56.008Z,30.17
2022-08-22T14:33:56.886Z,30.31
2022-08-22T14:34:57.798Z,30.85
2022-08-22T14:35:58.413Z,31.07
2022-08-22T14:36:58.883Z,31.08
2022-08-22T14:37:59.992Z,31.07
2022-08-22T14:39:00.617Z,31.22
2022-08-22T14:40:01.574Z,31.37
2022-08-22T14:41:02.293Z,31.51
2022-08-22T14:42:04.139Z,31.55
2022-08-22T14:43:04.057Z,31.48
2022-08-22T14:44:05.026Z,31.42
2022-08-22T14:45:06.422Z,31.47
2022-08-22T14:46:06.753Z,31.74
2022-08-22T14:47:32.295Z,31.69
2022-08-22T14:48:29.523Z,31.62
2022-08-22T14:49:09.984Z,31.52
2022-08-22T14:50:11.366Z,31.47
2022-08-22T14:51:10.744Z,31.36
2022-08-22T14:52:19.655Z,31.30
2022-08-22T14:53:13.378Z,31.26
2022-08-22T14:54:13.944Z,31.22
2022-08-22T14:55:14.048Z,31.20
2022-08-22T14:56:14.838Z,31.15
2022-08-22T14:57:20.015Z,31.17
2022-08-22T14:58:17.104Z,31.11
2022-08-22T14:59:16.974Z,31.08
2022-08-22T15:00:17.859Z,31.08
2022-08-22T15:01:18.726Z,31.08
2022-08-22T15:02:19.514Z,31.08
2022-08-22T15:03:20.175Z,31.05
2022-08-22T15:04:21.045Z,31.04
2022-08-22T15:05:21.933Z,31.05
2022-08-22T15:06:22.838Z,30.98
2022-08-22T15:07:23.447Z,30.92
2022-08-22T15:08:24.413Z,30.91
2022-08-22T15:09:25.040Z,30.88
2022-08-22T15:10:25.442Z,30.95
2022-08-22T15:11:26.333Z,31.35
2022-08-22T15:12:27.218Z,31.69
2022-08-22T15:13:29.647Z,32.00
2022-08-22T15:14:29.007Z,32.00
2022-08-22T15:15:29.941Z,32.45
2022-08-22T15:16:30.836Z,32.97
2022-08-22T15:17:31.609Z,33.60
2022-08-22T15:18:32.241Z,33.97
2022-08-22T15:19:33.226Z,33.67
2022-08-22T15:20:36.404Z,33.51
2022-08-22T15:21:37.183Z,33.58
2022-08-22T15:22:36.718Z,34.13
2022-08-22T15:23:45.384Z,34.50
2022-08-22T15:24:39.007Z,34.50
2022-08-22T15:25:38.119Z,34.10
2022-08-22T15:26:38.946Z,34.10
2022-08-22T15:27:39.826Z,34.48
2022-08-22T15:28:53.010Z,34.25
2022-08-22T15:29:42.469Z,33.91
2022-08-22T15:30:44.462Z,33.54
2022-08-22T15:31:44.913Z,33.19
2022-08-22T15:32:43.585Z,32.91
2022-08-22T15:33:45.477Z,32.68
2022-08-22T15:34:46.871Z,32.53
2022-08-22T15:35:46.221Z,32.29
2022-08-22T15:36:47.082Z,32.12
2022-08-22T15:37:47.957Z,31.97
2022-08-22T15:38:48.495Z,31.86
2022-08-22T15:39:49.440Z,31.77
2022-08-22T15:40:50.018Z,31.74
2022-08-22T15:41:50.561Z,31.86
2022-08-22T15:42:51.453Z,31.69
2022-08-22T15:43:52.352Z,31.55
2022-08-22T15:44:53.238Z,31.41
2022-08-22T15:45:54.121Z,31.32
2022-08-22T15:46:54.993Z,31.23
2022-08-22T15:47:55.894Z,31.14
2022-08-22T15:48:56.777Z,31.07
2022-08-22T15:49:58.406Z,31.00
2022-08-22T15:50:58.288Z,30.96
2022-08-22T15:51:59.153Z,30.96
2022-08-22T15:53:06.583Z,30.89
2022-08-22T15:54:01.801Z,30.83
2022-08-22T15:55:01.797Z,30.80
2022-08-22T15:56:05.100Z,30.76
2022-08-22T15:57:02.714Z,30.69
2022-08-22T15:58:03.629Z,30.67
2022-08-22T15:59:04.470Z,30.65
2022-08-22T16:00:12.081Z,30.67
2022-08-22T16:01:14.179Z,30.65
2022-08-22T16:02:07.952Z,30.70
2022-08-22T16:03:07.881Z,30.86
2022-08-22T16:04:08.756Z,30.95
2022-08-22T16:05:09.633Z,31.22
2022-08-22T16:06:10.502Z,31.45
2022-08-22T16:07:11.381Z,31.72
2022-08-22T16:08:12.249Z,31.97
2022-08-22T16:09:13.131Z,32.07
2022-08-22T16:10:14.017Z,32.02
2022-08-22T16:11:14.952Z,32.05
2022-08-22T16:12:15.820Z,32.00
2022-08-22T16:13:16.694Z,32.23
2022-08-22T16:14:17.578Z,32.44
2022-08-22T16:15:18.303Z,32.51
2022-08-22T16:16:19.132Z,32.41
2022-08-22T16:17:20.017Z,32.30
2022-08-22T16:18:20.916Z,32.22
2022-08-22T16:19:21.869Z,32.16
2022-08-22T16:20:22.723Z,32.05
2022-08-22T16:21:23.605Z,32.00
2022-08-22T16:22:24.491Z,32.17
2022-08-22T16:23:25.353Z,32.29
2022-08-22T16:24:26.230Z,32.44
2022-08-22T16:25:27.178Z,32.56
2022-08-22T16:26:28.000Z,32.57
2022-08-22T16:27:28.869Z,32.63
2022-08-22T16:28:56.404Z,32.64
2022-08-22T16:29:31.538Z,32.61
2022-08-22T16:30:32.347Z,32.63
2022-08-22T16:31:32.179Z,32.61
2022-08-22T16:32:33.038Z,32.51
2022-08-22T16:33:33.911Z,32.59
2022-08-22T16:34:34.822Z,32.60
2022-08-22T16:35:35.757Z,32.61
2022-08-22T16:36:36.493Z,32.63
2022-08-22T16:37:37.369Z,32.60
2022-08-22T16:38:38.241Z,32.45
2022-08-22T16:39:39.165Z,32.35
2022-08-22T16:40:39.995Z,32.24
2022-08-22T16:41:40.882Z,32.26
2022-08-22T16:42:41.754Z,32.26
2022-08-22T16:43:54.948Z,32.20
2022-08-22T16:44:44.523Z,32.07
2022-08-22T16:49:24.131Z,31.57
2022-08-22T16:50:25.015Z,31.48
2022-08-22T16:51:29.022Z,31.36
2022-08-22T16:54:16.713Z,31.10
2022-08-22T16:55:17.612Z,31.02
2022-08-22T16:56:21.449Z,30.96
2022-08-22T16:57:19.382Z,30.89
2022-08-22T16:58:20.252Z,30.83
2022-08-22T16:59:23.756Z,30.76
2022-08-22T17:00:22.966Z,30.73
2022-08-22T17:01:22.379Z,30.69
2022-08-22T17:02:23.237Z,30.63
2022-08-22T17:03:24.120Z,30.62
2022-08-22T17:04:25.083Z,30.58
2022-08-22T17:05:29.475Z,30.54
2022-08-22T17:06:26.690Z,30.48
2022-08-22T17:07:27.555Z,30.46
2022-08-22T17:08:28.470Z,30.40
2022-08-22T17:09:29.323Z,30.36
2022-08-22T17:10:30.215Z,30.32
2022-08-22T17:11:31.094Z,30.31
2022-08-22T17:12:31.996Z,30.31
2022-08-22T17:13:33.019Z,30.27
2022-08-22T17:14:33.352Z,30.21
2022-08-22T17:15:34.374Z,30.23
2022-08-22T17:16:35.325Z,30.20
2022-08-22T17:17:36.199Z,30.17
2022-08-22T17:18:37.061Z,30.16
2022-08-22T17:19:39.057Z,30.16
2022-08-22T17:20:38.466Z,30.11
2022-08-22T17:21:39.556Z,30.11
2022-08-22T17:22:39.921Z,30.08
2022-08-22T17:23:41.001Z,30.08
2022-08-22T17:24:41.909Z,30.08
2022-08-22T17:25:42.292Z,30.03
2022-08-22T17:26:43.228Z,30.03
2022-08-22T17:27:44.063Z,29.99
2022-08-22T17:28:44.945Z,30.01
2022-08-22T17:29:45.838Z,29.96
2022-08-22T17:30:46.745Z,29.95
2022-08-22T17:31:47.869Z,29.94
2022-08-22T17:32:51.344Z,29.94
2022-08-22T17:33:51.705Z,29.95
2022-08-22T17:34:50.082Z,29.92
2022-08-22T17:35:49.930Z,29.90
2022-08-22T17:36:50.806Z,29.90
2022-08-22T17:37:51.679Z,29.89
2022-08-22T17:38:52.538Z,29.90
2022-08-22T17:39:56.002Z,29.90
2022-08-22T17:40:53.947Z,29.89
2022-08-22T17:41:54.837Z,29.87
2022-08-22T17:42:55.706Z,29.87
2022-08-22T17:43:56.571Z,29.89
2022-08-22T17:44:57.460Z,29.86
2022-08-22T17:45:58.394Z,29.83
2022-08-22T17:46:59.280Z,29.84
2022-08-22T17:48:00.496Z,29.84
2022-08-22T17:49:00.954Z,29.83
2022-08-22T17:50:01.963Z,29.84
2022-08-22T17:51:03.908Z,29.81
2022-08-22T17:52:03.291Z,29.80
2022-08-22T17:53:03.833Z,29.80
2022-08-22T17:54:05.680Z,29.80
2022-08-22T17:55:05.527Z,29.79
2022-08-22T17:56:06.395Z,29.79
2022-08-22T17:57:07.309Z,29.77
2022-08-22T17:58:08.262Z,29.74
2022-08-22T17:59:09.123Z,29.74
2022-08-22T18:00:10.003Z,29.74
2022-08-22T18:01:10.948Z,29.73
2022-08-22T18:02:11.812Z,29.71
2022-08-22T18:03:12.794Z,29.71
2022-08-22T18:04:13.626Z,29.69
2022-08-22T18:05:14.553Z,29.67
2022-08-22T18:06:16.079Z,29.67
2022-08-22T18:07:15.953Z,29.65
2022-08-22T18:09:18.671Z,29.64
2022-08-22T18:10:18.529Z,29.61
2022-08-22T18:11:19.157Z,29.61
2022-08-22T18:12:19.981Z,29.62
2022-08-22T18:13:20.846Z,29.59
2022-08-22T18:14:21.794Z,29.58
2022-08-22T18:15:22.645Z,29.59
2022-08-22T18:16:23.593Z,29.53
2022-08-22T18:17:24.329Z,29.55
2022-08-22T18:18:29.931Z,29.57
2022-08-22T18:19:26.973Z,29.52
2022-08-22T18:20:26.846Z,29.53
2022-08-22T18:21:27.723Z,29.49
2022-08-22T18:22:29.432Z,29.47
2022-08-22T18:23:36.207Z,29.52
2022-08-22T18:24:33.244Z,29.49
2022-08-22T18:25:30.792Z,29.46
2022-08-22T18:26:31.615Z,29.46
2022-08-22T18:27:35.032Z,29.42
2022-08-22T18:28:32.793Z,29.44
2022-08-22T18:29:33.993Z,29.40
2022-08-22T18:30:36.841Z,29.42
2022-08-22T18:31:38.301Z,29.42
2022-08-22T18:32:35.995Z,29.39
2022-08-22T18:33:36.706Z,29.35
2022-08-22T18:34:40.725Z,29.37
2022-08-22T18:35:38.475Z,29.34
2022-08-22T18:36:40.099Z,29.34
2022-08-22T18:37:39.899Z,29.31
2022-08-22T18:38:40.755Z,29.30
2022-08-22T18:39:42.613Z,29.30
2022-08-22T18:40:46.865Z,29.27
2022-08-22T18:41:44.348Z,29.28
2022-08-22T18:42:44.025Z,29.24
2022-08-22T18:43:44.917Z,29.24
2022-08-22T18:44:45.801Z,29.22
2022-08-22T18:45:46.708Z,29.20
2022-08-22T18:46:47.775Z,29.18
2022-08-22T18:47:48.628Z,29.20
2022-08-22T18:49:11.981Z,29.18
2022-08-22T18:49:51.218Z,29.16
2022-08-22T18:50:52.467Z,29.13
2022-08-22T18:51:51.787Z,29.13
2022-08-22T18:52:55.875Z,29.12
2022-08-22T18:53:54.528Z,29.13
2022-08-22T18:54:53.976Z,29.10
2022-08-22T18:55:55.452Z,29.07
2022-08-22T18:56:55.285Z,29.05
2022-08-22T18:57:56.009Z,29.03
2022-08-22T18:59:05.627Z,29.05
2022-08-22T18:59:58.189Z,29.00
2022-08-22T19:00:58.172Z,28.97
2022-08-22T19:01:59.121Z,29.00
2022-08-22T19:02:59.808Z,28.94
2022-08-22T19:04:00.138Z,28.94
2022-08-22T19:05:01.032Z,28.92
2022-08-22T19:06:02.045Z,28.93
2022-08-22T19:07:02.529Z,28.89
2022-08-22T19:08:03.037Z,28.87
2022-08-22T19:09:04.918Z,28.89
2022-08-22T19:10:04.834Z,28.86
2022-08-22T19:11:05.688Z,28.84
2022-08-22T19:12:07.635Z,28.83
2022-08-22T19:13:07.485Z,28.84
2022-08-22T19:14:08.350Z,28.80
2022-08-22T19:15:09.229Z,28.82
2022-08-22T19:16:10.110Z,28.82
2022-08-22T19:17:15.426Z,28.77
2022-08-22T19:18:11.590Z,28.82
2022-08-22T19:19:17.204Z,28.75
2022-08-22T19:20:14.236Z,28.77
2022-08-22T19:21:14.260Z,28.77
2022-08-22T19:22:15.140Z,28.75
2022-08-22T19:23:16.052Z,28.74
2022-08-22T19:24:16.909Z,28.72
2022-08-22T19:25:17.803Z,28.71
2022-08-22T19:26:18.847Z,28.71
2022-08-22T19:27:19.463Z,28.70
2022-08-22T19:28:20.137Z,28.70
2022-08-22T19:29:21.043Z,28.67
2022-08-22T19:30:21.918Z,28.70
2022-08-22T19:31:22.835Z,28.68
2022-08-22T19:32:23.689Z,28.65
2022-08-22T19:33:25.646Z,28.64
2022-08-22T19:34:26.212Z,28.65
2022-08-22T19:35:25.661Z,28.64
2022-08-22T19:36:26.029Z,28.62
2022-08-22T19:37:32.947Z,28.60
2022-08-22T19:38:28.706Z,28.59
2022-08-22T19:39:28.539Z,28.59
2022-08-22T19:40:29.371Z,28.60
2022-08-22T19:41:34.941Z,28.57
2022-08-22T19:42:30.884Z,28.57
2022-08-22T19:43:31.769Z,28.55
2022-08-22T19:44:32.656Z,28.55
2022-08-22T19:45:33.553Z,28.56
2022-08-22T19:46:34.117Z,28.55
2022-08-22T19:47:35.004Z,28.55
2022-08-22T19:48:35.875Z,28.55
2022-08-22T19:49:36.794Z,28.49
2022-08-22T19:50:37.683Z,28.50
2022-08-22T19:51:38.543Z,28.50
2022-08-22T19:52:39.399Z,28.50
2022-08-22T19:53:40.278Z,28.49
2022-08-22T19:54:41.148Z,28.47
2022-08-22T19:55:42.054Z,28.49
2022-08-22T19:56:42.960Z,28.45
2022-08-22T19:57:43.827Z,28.47
2022-08-22T19:58:44.715Z,28.46
2022-08-22T19:59:50.889Z,28.45
2022-08-22T20:00:51.515Z,28.45
2022-08-22T20:01:48.096Z,28.45
2022-08-22T20:02:47.969Z,28.45
2022-08-22T20:03:48.836Z,28.43
2022-08-22T20:04:49.725Z,28.43
2022-08-22T20:05:57.105Z,28.40
2022-08-22T20:06:52.337Z,28.40
2022-08-22T20:07:52.245Z,28.40
2022-08-22T20:08:53.115Z,28.40
2022-08-22T20:09:53.994Z,28.38
2022-08-22T20:10:54.869Z,28.38
2022-08-22T20:11:57.385Z,28.38
2022-08-22T20:12:56.337Z,28.37
2022-08-22T20:13:57.434Z,28.40
2022-08-22T20:14:57.777Z,28.37
2022-08-22T20:15:58.769Z,28.37
2022-08-22T20:17:00.701Z,28.34
2022-08-22T20:19:07.720Z,28.33
2022-08-22T20:20:19.074Z,28.34
2022-08-22T20:21:03.846Z,28.31
2022-08-22T20:22:03.742Z,28.33
2022-08-22T20:23:04.599Z,28.31
2022-08-22T20:24:05.505Z,28.31
2022-08-22T20:25:06.388Z,28.31
2022-08-22T20:26:08.187Z,28.31
2022-08-22T20:27:14.547Z,28.31
2022-08-22T20:28:09.789Z,28.30
2022-08-22T20:29:09.760Z,28.31
2022-08-22T20:30:10.461Z,28.28
2022-08-22T20:31:11.335Z,28.27
2022-08-22T20:32:12.206Z,28.30
2022-08-22T20:33:13.095Z,28.28
2022-08-22T20:34:13.958Z,28.25
2022-08-22T20:35:16.908Z,28.27
2022-08-22T20:36:27.541Z,28.27
2022-08-22T20:37:35.871Z,28.27
2022-08-22T20:38:18.142Z,28.25
2022-08-22T20:39:17.556Z,28.25
2022-08-22T20:40:26.392Z,28.25
2022-08-22T20:41:21.039Z,28.20
2022-08-22T20:42:20.056Z,28.20
2022-08-22T20:43:20.926Z,28.20
2022-08-22T20:44:21.434Z,28.20
2022-08-22T20:45:22.460Z,28.20
2022-08-22T20:48:13.409Z,28.20
2022-08-22T20:51:04.649Z,28.19
2022-08-22T20:52:05.502Z,28.20
2022-08-22T20:53:24.285Z,28.19
2022-08-22T20:54:10.057Z,28.19
2022-08-22T20:55:08.912Z,28.18
2022-08-22T20:56:08.742Z,28.19
2022-08-22T20:57:09.766Z,28.18
2022-08-22T20:58:10.159Z,28.18
2022-08-22T20:59:11.156Z,28.18
2022-08-22T21:00:11.947Z,28.15
2022-08-22T21:01:14.004Z,28.15
2022-08-22T21:02:13.333Z,28.18
2022-08-22T21:03:14.237Z,28.16
2022-08-22T21:04:15.108Z,28.16
2022-08-22T21:05:16.029Z,28.12
2022-08-22T21:06:16.868Z,28.15
2022-08-22T21:07:18.324Z,28.15
2022-08-22T21:08:18.673Z,28.15
2022-08-22T21:09:19.550Z,28.13
2022-08-22T21:10:22.729Z,28.12
2022-08-22T21:11:21.325Z,28.10
2022-08-22T21:12:22.194Z,28.10
2022-08-22T21:13:23.077Z,28.12
2022-08-22T21:14:23.964Z,28.08
2022-08-22T21:15:24.858Z,28.09
2022-08-22T21:16:29.341Z,28.10
2022-08-22T21:17:27.509Z,28.09
2022-08-22T21:18:27.432Z,28.09
2022-08-22T21:19:28.344Z,28.09
2022-08-22T21:20:29.233Z,28.09
2022-08-22T21:21:30.148Z,28.08
2022-08-22T21:22:30.975Z,28.06
2022-08-22T21:23:31.898Z,28.08
2022-08-22T21:24:32.740Z,28.06
2022-08-22T21:25:33.662Z,28.06
2022-08-22T21:26:34.533Z,28.06
2022-08-22T21:27:35.417Z,28.03
2022-08-22T21:28:36.315Z,28.03
2022-08-22T21:29:37.179Z,28.08
2022-08-22T21:30:38.127Z,28.06
2022-08-22T21:31:39.026Z,28.04
2022-08-22T21:32:39.902Z,28.06
2022-08-22T21:33:40.765Z,28.06
2022-08-22T21:34:41.638Z,28.04
2022-08-22T21:35:42.560Z,28.04
2022-08-22T21:36:43.475Z,28.04
2022-08-22T21:37:44.336Z,28.04
2022-08-22T21:38:45.231Z,28.04
2022-08-22T21:39:46.320Z,28.00
2022-08-22T21:40:46.670Z,28.01
2022-08-22T21:41:47.598Z,28.01
2022-08-22T21:42:48.434Z,28.01
2022-08-22T21:43:53.789Z,28.03
2022-08-22T21:44:50.153Z,28.03
2022-08-22T21:45:50.996Z,28.01
2022-08-22T21:46:52.430Z,27.98
2022-08-22T21:47:52.435Z,27.97
2022-08-22T21:48:53.287Z,28.00
2022-08-22T21:49:54.236Z,28.00
2022-08-22T21:50:56.360Z,28.00
2022-08-22T21:51:55.697Z,28.00
2022-08-22T21:52:56.578Z,27.98
2022-08-22T21:54:17.493Z,27.97